METAR stanice u blizini

 

LYBE - Beograd / Surčin, Srbija
Ažurirano: 03/04/2020 10:30
Vedro
Vedro
 Pravac vetra varies
Vetar: varies 6 km/h
Temperatura: 10°C
Tačka rose: 1°C
Vlažnost: 54%
Pritisak: 1014 hPa
Pregled: Vedro
Vidljivost: greater than 10 km
2020/04/03 08:30 LYBE 030830Z VRB03KT CAVOK 10/01 Q1014 NOSIG
LYBT - Beograd / Batajnica, Srbija
Ažurirano: 03/04/2020 10:30
Vedro
Vedro
 Pravac vetra varies
Vetar: varies 4 km/h
Temperatura: 10°C
Tačka rose: 0°C
Vlažnost: 50%
Pritisak: 1014 hPa
Pregled: Vedro
Vidljivost: greater than 10 km
2020/04/03 08:30 LYBT 030830Z VRB02KT CAVOK 10/00 Q1014 NOSIG
LYVR - Vršac, Srbija
Ažurirano: 03/04/2020 10:30
Vedro
Vedro
 Pravac vetra J
Vetar: J 13 km/h
Temperatura: 11°C
Tačka rose: 0°C
Vlažnost: 47%
Pritisak: 1014 hPa
Pregled: Vedro
Vidljivost: greater than 10 km
2020/04/03 08:30 LYVR 030830Z 18007KT 150V220 CAVOK 11/00 Q1014 NOSIG
 
LYKV - Lađevci, Srbija
Ažurirano: 03/04/2020 10:30
Vedro
Vedro
 Pravac vetra varies
Vetar: varies 4 km/h
Temperatura: 8°C
Tačka rose: 5°C
Vlažnost: 82%
Pritisak: 1015 hPa
Pregled: Vedro
Vidljivost: greater than 10 km
2020/04/03 08:30 LYKV 030830Z VRB02KT CAVOK 08/05 Q1015 NOSIG
LYNI - Niš, Srbija
Ažurirano: 03/04/2020 10:30
Vedro
Vedro
 Pravac vetra varies
Vetar: varies 4 km/h
Temperatura: 9°C
Tačka rose: 1°C
Vlažnost: 58%
Pritisak: 1015 hPa
Pregled: Vedro
Vidljivost: greater than 10 km
2020/04/03 08:30 LYNI 030830Z VRB02KT CAVOK 09/01 Q1015 NOSIG
BKPR - Priština, Srbija
Ažurirano: 03/04/2020 10:30
Few Clouds
Few Clouds
 Pravac vetra J
Vetar: J 11 km/h
Temperatura: 6°C
Osećaj hladnoće: 4°C
Tačka rose: -1°C
Vlažnost: 61%
Pritisak: 1014 hPa
Oblaci: Few Clouds
Vidljivost: 10 km
Cloud details: Few Clouds 2438 m
2020/04/03 08:30 BKPR 030830Z 17006KT 9999 FEW080 06/M01 Q1014 NOSIG RMK 17190095
 
LHPP - Pecs / Pogany, Hungary
Ažurirano: 03/04/2020 10:15
Vedro
Vedro
 Pravac vetra ZSZ
Vetar: ZSZ 7 km/h
Temperatura: 10°C
Osećaj hladnoće: 9°C
Tačka rose: -1°C
Vlažnost: 47%
Pritisak: 1013 hPa
Pregled: Vedro
Vidljivost: greater than 10 km
2020/04/03 08:15 LHPP 030815Z 29004KT CAVOK 10/M01 Q1013
LHUD - Szeged, Hungary
Ažurirano: 04/07/2019 01:45
NOT Current
Vedro
Vedro
 Pravac vetra S
Vetar: S 7 km/h
Temperatura: 18°C
Tačka rose: 13°C
Vlažnost: 73%
Pritisak: 1019 hPa
Pregled: Vedro
Vidljivost: greater than 10 km
2019/07/03 23:45 LHUD 032345Z 35004KT CAVOK 18/13 Q1019
LRTR - Timisoara, Romania
Ažurirano: 03/04/2020 10:30
Vedro
Vedro
 Pravac vetra JZ
Vetar: JZ 9 km/h
Temperatura: 10°C
Osećaj hladnoće: 9°C
Tačka rose: 0°C
Vlažnost: 50%
Pritisak: 1014 hPa
Pregled: Vedro
Vidljivost: greater than 10 km
2020/04/03 08:30 LRTR 030830Z 22005KT CAVOK 10/M00 Q1014
 
LRCV - Craiova, Romania
Ažurirano: 03/04/2020 10:30
Vedro
Vedro
 Pravac vetra varies
Vetar: varies 2 km/h
Temperatura: 10°C
Tačka rose: -3°C
Vlažnost: 40%
Pritisak: 1015 hPa
Pregled: Vedro
Vidljivost: greater than 10 km
2020/04/03 08:30 LRCV 030830Z VRB01KT CAVOK 10/M03 Q1015
LBSF - Sofia, Bulgaria
Ažurirano: 03/04/2020 10:30
Mist, Delimično oblačno
Mist, Delimično oblačno
 Pravac vetra I
Vetar: I 4 km/h
Temperatura: 0°C
Tačka rose: 0°C
Vlažnost: 100%
Pritisak: 1015 hPa
Pregled: Mist
Oblaci: Partly Cloudy
Vidljivost: 4 km
2020/04/03 08:30 LBSF 030830Z 10002KT 4000 BR NSC 00/M00 Q1015 BECMG 5000 BR
LWSK - Skoplje, Makedonija
Ažurirano: 03/04/2020 10:30
Vedro
Vedro
 Pravac vetra S
Vetar: S 4 km/h
Temperatura: 4°C
Tačka rose: -1°C
Vlažnost: 70%
Pritisak: 1017 hPa
Pregled: Vedro
Vidljivost: greater than 10 km
2020/04/03 08:30 LWSK 030830Z 35002KT CAVOK 04/M01 Q1017 NOSIG
 
LYPG - Podgorica, Crna Gora
Ažurirano: 03/04/2020 10:30
Partly Cloudy
Partly Cloudy
 Pravac vetra varies
Vetar: varies 4 km/h
Temperatura: 12°C
Tačka rose: 0°C
Vlažnost: 44%
Pritisak: 1014 hPa
Oblaci: Partly Cloudy
Vidljivost: 10 km
Cloud details: Partly Cloudy 1524 m
Partly Cloudy 3048 m
2020/04/03 08:30 LYPG 030830Z VRB02KT 9999 SCT050 SCT100 12/00 Q1014 NOSIG
LQSA - Sarajevo, Bosna i Hercegovina
Ažurirano: 03/04/2020 10:30
Vedro
Vedro
 Pravac vetra varies
Vetar: varies 2 km/h
Temperatura: 7°C
Tačka rose: 1°C
Vlažnost: 66%
Pritisak: 1013 hPa
Pregled: Vedro
Vidljivost: greater than 10 km
2020/04/03 08:30 LQSA 030830Z VRB01KT CAVOK 07/01 Q1013
LDOS - Osijek, Hrvatksa
Ažurirano: 03/04/2020 10:30
Vedro
Vedro
 Pravac vetra varies
Vetar: varies 2 km/h
Temperatura: 11°C
Tačka rose: 1°C
Vlažnost: 50%
Pritisak: 1014 hPa
Pregled: Vedro
Vidljivost: greater than 10 km
2020/04/03 08:30 LDOS 030830Z VRB01KT CAVOK 11/01 Q1014